sensor_id;sensor_type;location;lat;lon;timestamp;temperature;humidity
78571;SHT31;67861;51.966;5.672;2023-02-18T00:02:08;13.7;68.7
78571;SHT31;67861;51.966;5.672;2023-02-18T00:04:38;13.7;69.0
78571;SHT31;67861;51.966;5.672;2023-02-18T00:07:08;13.7;69.0
78571;SHT31;67861;51.966;5.672;2023-02-18T00:09:39;13.7;69.0
78571;SHT31;67861;51.966;5.672;2023-02-18T00:12:08;13.6;69.2
78571;SHT31;67861;51.966;5.672;2023-02-18T00:14:39;13.6;69.3
78571;SHT31;67861;51.966;5.672;2023-02-18T00:17:08;13.6;69.4
78571;SHT31;67861;51.966;5.672;2023-02-18T00:19:38;13.6;69.6
78571;SHT31;67861;51.966;5.672;2023-02-18T00:22:08;13.6;69.6
78571;SHT31;67861;51.966;5.672;2023-02-18T00:24:41;13.5;69.8
78571;SHT31;67861;51.966;5.672;2023-02-18T00:27:10;13.5;69.8
78571;SHT31;67861;51.966;5.672;2023-02-18T00:29:40;13.5;69.8
78571;SHT31;67861;51.966;5.672;2023-02-18T00:32:10;13.5;69.9
78571;SHT31;67861;51.966;5.672;2023-02-18T00:34:40;13.5;69.9
78571;SHT31;67861;51.966;5.672;2023-02-18T00:37:09;13.5;70.0
78571;SHT31;67861;51.966;5.672;2023-02-18T00:39:39;13.4;70.1
78571;SHT31;67861;51.966;5.672;2023-02-18T00:42:09;13.4;70.1
78571;SHT31;67861;51.966;5.672;2023-02-18T00:44:42;13.4;70.1
78571;SHT31;67861;51.966;5.672;2023-02-18T00:47:12;13.4;70.2
78571;SHT31;67861;51.966;5.672;2023-02-18T00:49:42;13.4;70.1
78571;SHT31;67861;51.966;5.672;2023-02-18T00:52:11;13.4;70.2
78571;SHT31;67861;51.966;5.672;2023-02-18T00:54:41;13.4;70.2
78571;SHT31;67861;51.966;5.672;2023-02-18T00:57:11;13.3;70.3
78571;SHT31;67861;51.966;5.672;2023-02-18T00:59:41;13.3;70.3
78571;SHT31;67861;51.966;5.672;2023-02-18T01:02:13;13.3;70.3
78571;SHT31;67861;51.966;5.672;2023-02-18T01:04:47;13.3;70.3
78571;SHT31;67861;51.966;5.672;2023-02-18T01:07:17;13.3;70.3
78571;SHT31;67861;51.966;5.672;2023-02-18T01:09:47;13.3;70.7
78571;SHT31;67861;51.966;5.672;2023-02-18T01:12:18;13.3;70.5
78571;SHT31;67861;51.966;5.672;2023-02-18T01:14:48;13.4;70.5
78571;SHT31;67861;51.966;5.672;2023-02-18T01:17:17;13.4;70.2
78571;SHT31;67861;51.966;5.672;2023-02-18T01:19:47;13.4;70.0
78571;SHT31;67861;51.966;5.672;2023-02-18T01:22:17;13.4;70.1
78571;SHT31;67861;51.966;5.672;2023-02-18T01:24:46;13.4;70.3
78571;SHT31;67861;51.966;5.672;2023-02-18T01:27:19;13.3;70.3
78571;SHT31;67861;51.966;5.672;2023-02-18T01:29:49;13.3;70.5
78571;SHT31;67861;51.966;5.672;2023-02-18T01:32:19;13.3;70.6
78571;SHT31;67861;51.966;5.672;2023-02-18T01:34:49;13.3;70.7
78571;SHT31;67861;51.966;5.672;2023-02-18T01:37:18;13.3;70.9
78571;SHT31;67861;51.966;5.672;2023-02-18T01:39:48;13.3;70.8
78571;SHT31;67861;51.966;5.672;2023-02-18T01:42:24;13.3;70.9
78571;SHT31;67861;51.966;5.672;2023-02-18T01:48:17;13.3;71.1
78571;SHT31;67861;51.966;5.672;2023-02-18T01:50:51;13.3;71.2
78571;SHT31;67861;51.966;5.672;2023-02-18T01:53:29;13.3;71.2
78571;SHT31;67861;51.966;5.672;2023-02-18T01:56:02;13.3;71.3
78571;SHT31;67861;51.966;5.672;2023-02-18T01:58:35;13.3;71.3
78571;SHT31;67861;51.966;5.672;2023-02-18T02:01:06;13.3;71.4
78571;SHT31;67861;51.966;5.672;2023-02-18T02:03:35;13.3;71.5
78571;SHT31;67861;51.966;5.672;2023-02-18T02:06:14;13.3;71.6
78571;SHT31;67861;51.966;5.672;2023-02-18T02:08:47;13.3;71.6
78571;SHT31;67861;51.966;5.672;2023-02-18T02:11:23;13.3;71.7
78571;SHT31;67861;51.966;5.672;2023-02-18T02:14:09;13.3;71.8
78571;SHT31;67861;51.966;5.672;2023-02-18T02:16:44;13.3;72.0
78571;SHT31;67861;51.966;5.672;2023-02-18T02:20:17;13.3;72.1
78571;SHT31;67861;51.966;5.672;2023-02-18T02:28:17;13.3;72.3
78571;SHT31;67861;51.966;5.672;2023-02-18T02:31:10;13.3;72.4
78571;SHT31;67861;51.966;5.672;2023-02-18T02:36:39;13.3;72.8
78571;SHT31;67861;51.966;5.672;2023-02-18T02:39:23;13.3;72.7
78571;SHT31;67861;51.966;5.672;2023-02-18T02:42:04;13.4;73.0
78571;SHT31;67861;51.966;5.672;2023-02-18T02:44:45;13.4;73.0
78571;SHT31;67861;51.966;5.672;2023-02-18T02:47:21;13.4;73.2
78571;SHT31;67861;51.966;5.672;2023-02-18T02:50:03;13.5;72.8
78571;SHT31;67861;51.966;5.672;2023-02-18T02:52:40;13.6;72.6
78571;SHT31;67861;51.966;5.672;2023-02-18T02:55:12;13.6;72.1
78571;SHT31;67861;51.966;5.672;2023-02-18T02:57:51;13.7;72.1
78571;SHT31;67861;51.966;5.672;2023-02-18T03:00:28;13.7;72.1
78571;SHT31;67861;51.966;5.672;2023-02-18T03:03:18;13.7;72.1
78571;SHT31;67861;51.966;5.672;2023-02-18T03:06:13;13.7;72.3
78571;SHT31;67861;51.966;5.672;2023-02-18T03:08:55;13.7;72.4
78571;SHT31;67861;51.966;5.672;2023-02-18T03:11:37;13.7;72.4
78571;SHT31;67861;51.966;5.672;2023-02-18T03:14:18;13.7;72.7
78571;SHT31;67861;51.966;5.672;2023-02-18T03:17:00;13.7;72.8
78571;SHT31;67861;51.966;5.672;2023-02-18T03:19:35;13.6;72.8
78571;SHT31;67861;51.966;5.672;2023-02-18T03:22:11;13.6;73.0
78571;SHT31;67861;51.966;5.672;2023-02-18T03:24:44;13.6;73.1
78571;SHT31;67861;51.966;5.672;2023-02-18T03:27:20;13.6;73.3
78571;SHT31;67861;51.966;5.672;2023-02-18T03:29:56;13.6;73.2
78571;SHT31;67861;51.966;5.672;2023-02-18T03:32:29;13.6;73.4
78571;SHT31;67861;51.966;5.672;2023-02-18T03:35:04;13.6;73.3
78571;SHT31;67861;51.966;5.672;2023-02-18T03:37:39;13.6;73.4
78571;SHT31;67861;51.966;5.672;2023-02-18T03:40:11;13.6;73.5
78571;SHT31;67861;51.966;5.672;2023-02-18T03:42:41;13.6;73.5
78571;SHT31;67861;51.966;5.672;2023-02-18T03:45:13;13.6;73.5
78571;SHT31;67861;51.966;5.672;2023-02-18T03:47:42;13.6;73.4
78571;SHT31;67861;51.966;5.672;2023-02-18T03:50:12;13.6;73.6
78571;SHT31;67861;51.966;5.672;2023-02-18T03:52:42;13.6;73.6
78571;SHT31;67861;51.966;5.672;2023-02-18T03:55:12;13.6;73.6
78571;SHT31;67861;51.966;5.672;2023-02-18T03:57:42;13.6;73.6
78571;SHT31;67861;51.966;5.672;2023-02-18T04:00:13;13.7;73.7
78571;SHT31;67861;51.966;5.672;2023-02-18T04:02:42;13.7;73.7
78571;SHT31;67861;51.966;5.672;2023-02-18T04:05:12;13.7;73.8
78571;SHT31;67861;51.966;5.672;2023-02-18T04:07:42;13.7;73.8
78571;SHT31;67861;51.966;5.672;2023-02-18T04:10:14;13.7;73.8
78571;SHT31;67861;51.966;5.672;2023-02-18T04:12:43;13.7;73.8
78571;SHT31;67861;51.966;5.672;2023-02-18T04:15:13;13.7;73.8
78571;SHT31;67861;51.966;5.672;2023-02-18T04:17:43;13.7;73.6
78571;SHT31;67861;51.966;5.672;2023-02-18T04:20:14;13.7;73.5
78571;SHT31;67861;51.966;5.672;2023-02-18T04:22:45;13.8;73.5
78571;SHT31;67861;51.966;5.672;2023-02-18T04:25:15;13.8;73.5
78571;SHT31;67861;51.966;5.672;2023-02-18T04:27:44;13.8;73.6
78571;SHT31;67861;51.966;5.672;2023-02-18T04:30:14;13.8;73.4
78571;SHT31;67861;51.966;5.672;2023-02-18T04:32:44;13.9;73.4
78571;SHT31;67861;51.966;5.672;2023-02-18T04:35:13;13.9;73.2
78571;SHT31;67861;51.966;5.672;2023-02-18T04:37:43;13.9;73.3
78571;SHT31;67861;51.966;5.672;2023-02-18T04:40:14;13.9;73.2
78571;SHT31;67861;51.966;5.672;2023-02-18T04:42:44;13.9;73.2
78571;SHT31;67861;51.966;5.672;2023-02-18T04:45:13;13.9;73.1
78571;SHT31;67861;51.966;5.672;2023-02-18T04:47:43;13.9;73.0
78571;SHT31;67861;51.966;5.672;2023-02-18T04:50:12;13.9;73.1
78571;SHT31;67861;51.966;5.672;2023-02-18T04:52:42;13.9;73.1
78571;SHT31;67861;51.966;5.672;2023-02-18T04:55:12;13.9;73.1
78571;SHT31;67861;51.966;5.672;2023-02-18T04:57:43;13.9;73.1
78571;SHT31;67861;51.966;5.672;2023-02-18T05:00:16;13.9;73.2
78571;SHT31;67861;51.966;5.672;2023-02-18T05:02:49;13.9;73.1
78571;SHT31;67861;51.966;5.672;2023-02-18T05:05:18;13.9;73.0
78571;SHT31;67861;51.966;5.672;2023-02-18T05:07:48;13.9;73.0
78571;SHT31;67861;51.966;5.672;2023-02-18T05:10:18;13.9;72.9
78571;SHT31;67861;51.966;5.672;2023-02-18T05:12:49;13.9;72.9
78571;SHT31;67861;51.966;5.672;2023-02-18T05:15:21;13.9;73.0
78571;SHT31;67861;51.966;5.672;2023-02-18T05:17:52;13.9;72.8
78571;SHT31;67861;51.966;5.672;2023-02-18T05:20:22;13.9;72.9
78571;SHT31;67861;51.966;5.672;2023-02-18T05:22:51;13.9;72.9
78571;SHT31;67861;51.966;5.672;2023-02-18T05:25:23;13.9;72.9
78571;SHT31;67861;51.966;5.672;2023-02-18T05:27:54;13.9;72.7
78571;SHT31;67861;51.966;5.672;2023-02-18T05:30:24;13.9;72.8
78571;SHT31;67861;51.966;5.672;2023-02-18T05:32:54;13.9;72.7
78571;SHT31;67861;51.966;5.672;2023-02-18T05:35:23;13.9;72.7
78571;SHT31;67861;51.966;5.672;2023-02-18T05:37:53;13.9;72.8
78571;SHT31;67861;51.966;5.672;2023-02-18T05:40:23;13.9;72.7
78571;SHT31;67861;51.966;5.672;2023-02-18T05:42:53;13.9;72.6
78571;SHT31;67861;51.966;5.672;2023-02-18T05:45:23;13.9;72.4
78571;SHT31;67861;51.966;5.672;2023-02-18T05:47:53;13.9;72.2
78571;SHT31;67861;51.966;5.672;2023-02-18T05:50:23;13.9;71.9
78571;SHT31;67861;51.966;5.672;2023-02-18T05:52:53;13.9;71.7
78571;SHT31;67861;51.966;5.672;2023-02-18T05:55:23;13.9;71.6
78571;SHT31;67861;51.966;5.672;2023-02-18T05:57:53;13.8;71.7
78571;SHT31;67861;51.966;5.672;2023-02-18T06:00:23;13.8;71.8
78571;SHT31;67861;51.966;5.672;2023-02-18T06:02:52;13.8;72.2
78571;SHT31;67861;51.966;5.672;2023-02-18T06:05:22;13.8;72.4
78571;SHT31;67861;51.966;5.672;2023-02-18T06:07:52;13.8;72.7
78571;SHT31;67861;51.966;5.672;2023-02-18T06:10:22;13.9;71.8
78571;SHT31;67861;51.966;5.672;2023-02-18T06:12:52;13.9;71.4
78571;SHT31;67861;51.966;5.672;2023-02-18T06:15:21;13.9;71.1
78571;SHT31;67861;51.966;5.672;2023-02-18T06:17:51;13.8;71.3
78571;SHT31;67861;51.966;5.672;2023-02-18T06:20:20;13.8;71.5
78571;SHT31;67861;51.966;5.672;2023-02-18T06:22:50;13.8;71.6
78571;SHT31;67861;51.966;5.672;2023-02-18T06:25:21;13.8;71.8
78571;SHT31;67861;51.966;5.672;2023-02-18T06:27:51;13.7;71.9
78571;SHT31;67861;51.966;5.672;2023-02-18T06:30:25;13.7;72.1
78571;SHT31;67861;51.966;5.672;2023-02-18T06:32:55;13.7;72.1
78571;SHT31;67861;51.966;5.672;2023-02-18T06:35:25;13.7;72.2
78571;SHT31;67861;51.966;5.672;2023-02-18T06:37:55;13.6;72.2
78571;SHT31;67861;51.966;5.672;2023-02-18T06:40:24;13.6;72.4
78571;SHT31;67861;51.966;5.672;2023-02-18T06:42:54;13.6;72.4
78571;SHT31;67861;51.966;5.672;2023-02-18T06:45:24;13.6;72.6
78571;SHT31;67861;51.966;5.672;2023-02-18T06:47:53;13.6;72.6
78571;SHT31;67861;51.966;5.672;2023-02-18T06:50:23;13.6;72.6
78571;SHT31;67861;51.966;5.672;2023-02-18T06:52:53;13.6;72.8
78571;SHT31;67861;51.966;5.672;2023-02-18T06:55:22;13.6;72.6
78571;SHT31;67861;51.966;5.672;2023-02-18T06:57:52;13.6;72.3
78571;SHT31;67861;51.966;5.672;2023-02-18T07:00:22;13.6;72.3
78571;SHT31;67861;51.966;5.672;2023-02-18T07:02:54;13.6;72.2
78571;SHT31;67861;51.966;5.672;2023-02-18T07:05:23;13.5;72.2
78571;SHT31;67861;51.966;5.672;2023-02-18T07:07:53;13.5;72.3
78571;SHT31;67861;51.966;5.672;2023-02-18T07:10:23;13.5;72.4
78571;SHT31;67861;51.966;5.672;2023-02-18T07:12:52;13.5;72.2
78571;SHT31;67861;51.966;5.672;2023-02-18T07:15:22;13.5;72.1
78571;SHT31;67861;51.966;5.672;2023-02-18T07:17:54;13.4;72.1
78571;SHT31;67861;51.966;5.672;2023-02-18T07:20:27;13.5;72.2
78571;SHT31;67861;51.966;5.672;2023-02-18T07:22:57;13.5;71.9
78571;SHT31;67861;51.966;5.672;2023-02-18T07:25:29;13.5;71.7
78571;SHT31;67861;51.966;5.672;2023-02-18T07:28:00;13.5;71.8
78571;SHT31;67861;51.966;5.672;2023-02-18T07:30:30;13.5;71.6
78571;SHT31;67861;51.966;5.672;2023-02-18T07:33:00;13.5;71.4
78571;SHT31;67861;51.966;5.672;2023-02-18T07:35:30;13.5;71.3
78571;SHT31;67861;51.966;5.672;2023-02-18T07:37:59;13.5;71.6
78571;SHT31;67861;51.966;5.672;2023-02-18T07:40:30;13.5;71.3
78571;SHT31;67861;51.966;5.672;2023-02-18T07:42:59;13.6;71.2
78571;SHT31;67861;51.966;5.672;2023-02-18T07:45:29;13.6;70.9
78571;SHT31;67861;51.966;5.672;2023-02-18T07:47:59;13.7;70.4
78571;SHT31;67861;51.966;5.672;2023-02-18T07:50:30;13.7;70.2
78571;SHT31;67861;51.966;5.672;2023-02-18T07:53:06;13.7;69.8
78571;SHT31;67861;51.966;5.672;2023-02-18T07:55:58;13.7;69.9
78571;SHT31;67861;51.966;5.672;2023-02-18T07:58:30;13.7;69.6
78571;SHT31;67861;51.966;5.672;2023-02-18T08:01:03;13.6;69.2
78571;SHT31;67861;51.966;5.672;2023-02-18T08:03:34;13.6;69.3
78571;SHT31;67861;51.966;5.672;2023-02-18T08:06:05;13.6;69.4
78571;SHT31;67861;51.966;5.672;2023-02-18T08:08:37;13.6;68.7
78571;SHT31;67861;51.966;5.672;2023-02-18T08:11:07;13.5;68.6
78571;SHT31;67861;51.966;5.672;2023-02-18T08:13:37;13.5;68.9
78571;SHT31;67861;51.966;5.672;2023-02-18T08:16:08;13.5;68.2
78571;SHT31;67861;51.966;5.672;2023-02-18T08:18:39;13.5;68.1
78571;SHT31;67861;51.966;5.672;2023-02-18T08:21:09;13.4;68.0
78571;SHT31;67861;51.966;5.672;2023-02-18T08:23:40;13.4;67.9
78571;SHT31;67861;51.966;5.672;2023-02-18T08:26:10;13.4;68.2
78571;SHT31;67861;51.966;5.672;2023-02-18T08:28:41;13.4;68.4
78571;SHT31;67861;51.966;5.672;2023-02-18T08:31:20;13.4;68.7
78571;SHT31;67861;51.966;5.672;2023-02-18T08:33:52;13.3;68.2
78571;SHT31;67861;51.966;5.672;2023-02-18T08:36:23;13.3;68.3
78571;SHT31;67861;51.966;5.672;2023-02-18T08:38:53;13.3;68.1
78571;SHT31;67861;51.966;5.672;2023-02-18T08:41:23;13.3;68.5
78571;SHT31;67861;51.966;5.672;2023-02-18T08:43:52;13.3;68.6
78571;SHT31;67861;51.966;5.672;2023-02-18T08:46:22;13.3;68.1
78571;SHT31;67861;51.966;5.672;2023-02-18T08:48:54;13.2;68.1
78571;SHT31;67861;51.966;5.672;2023-02-18T08:51:23;13.2;68.1
78571;SHT31;67861;51.966;5.672;2023-02-18T08:53:54;13.3;67.9
78571;SHT31;67861;51.966;5.672;2023-02-18T08:56:25;13.3;68.1
78571;SHT31;67861;51.966;5.672;2023-02-18T08:58:55;13.3;67.9
78571;SHT31;67861;51.966;5.672;2023-02-18T09:01:25;13.3;67.8
78571;SHT31;67861;51.966;5.672;2023-02-18T09:03:54;13.3;67.7
78571;SHT31;67861;51.966;5.672;2023-02-18T09:06:27;13.3;67.6
78571;SHT31;67861;51.966;5.672;2023-02-18T09:08:56;13.2;68.3
78571;SHT31;67861;51.966;5.672;2023-02-18T09:11:26;13.2;68.4
78571;SHT31;67861;51.966;5.672;2023-02-18T09:13:56;13.2;68.6
78571;SHT31;67861;51.966;5.672;2023-02-18T09:16:26;13.2;68.6
78571;SHT31;67861;51.966;5.672;2023-02-18T09:18:56;13.1;69.0
78571;SHT31;67861;51.966;5.672;2023-02-18T09:21:26;13.1;69.3
78571;SHT31;67861;51.966;5.672;2023-02-18T09:23:58;13.2;69.2
78571;SHT31;67861;51.966;5.672;2023-02-18T09:26:28;13.2;68.8
78571;SHT31;67861;51.966;5.672;2023-02-18T09:28:58;13.3;68.6
78571;SHT31;67861;51.966;5.672;2023-02-18T09:31:28;13.2;68.7
78571;SHT31;67861;51.966;5.672;2023-02-18T09:34:01;13.2;68.7
78571;SHT31;67861;51.966;5.672;2023-02-18T09:36:33;13.2;68.5
78571;SHT31;67861;51.966;5.672;2023-02-18T09:39:04;13.2;68.7
78571;SHT31;67861;51.966;5.672;2023-02-18T09:41:38;13.2;68.6
78571;SHT31;67861;51.966;5.672;2023-02-18T09:44:15;13.2;68.9
78571;SHT31;67861;51.966;5.672;2023-02-18T09:46:50;13.2;68.6
78571;SHT31;67861;51.966;5.672;2023-02-18T09:49:26;13.2;68.9
78571;SHT31;67861;51.966;5.672;2023-02-18T09:52:03;13.2;68.7
78571;SHT31;67861;51.966;5.672;2023-02-18T09:54:34;13.2;68.8
78571;SHT31;67861;51.966;5.672;2023-02-18T09:57:06;13.2;68.3
78571;SHT31;67861;51.966;5.672;2023-02-18T09:59:41;13.2;68.4
78571;SHT31;67861;51.966;5.672;2023-02-18T10:02:13;13.2;68.0
78571;SHT31;67861;51.966;5.672;2023-02-18T10:04:50;13.2;68.0
78571;SHT31;67861;51.966;5.672;2023-02-18T10:07:25;13.2;68.2
78571;SHT31;67861;51.966;5.672;2023-02-18T10:10:00;13.2;67.9
78571;SHT31;67861;51.966;5.672;2023-02-18T10:12:32;13.2;67.6
78571;SHT31;67861;51.966;5.672;2023-02-18T10:15:16;13.2;68.1
78571;SHT31;67861;51.966;5.672;2023-02-18T10:17:50;13.2;67.8
78571;SHT31;67861;51.966;5.672;2023-02-18T10:20:28;13.2;68.1
78571;SHT31;67861;51.966;5.672;2023-02-18T10:23:30;13.2;68.3
78571;SHT31;67861;51.966;5.672;2023-02-18T10:26:22;13.3;68.1
78571;SHT31;67861;51.966;5.672;2023-02-18T10:28:52;13.3;68.2
78571;SHT31;67861;51.966;5.672;2023-02-18T10:31:28;13.3;68.1
78571;SHT31;67861;51.966;5.672;2023-02-18T10:34:28;13.3;67.4
78571;SHT31;67861;51.966;5.672;2023-02-18T10:37:08;13.3;68.0
78571;SHT31;67861;51.966;5.672;2023-02-18T10:39:55;13.3;68.1
78571;SHT31;67861;51.966;5.672;2023-02-18T10:42:39;13.3;68.1
78571;SHT31;67861;51.966;5.672;2023-02-18T10:45:23;13.3;68.2
78571;SHT31;67861;51.966;5.672;2023-02-18T10:48:13;13.3;68.4
78571;SHT31;67861;51.966;5.672;2023-02-18T10:50:49;13.3;68.4
78571;SHT31;67861;51.966;5.672;2023-02-18T10:53:24;13.3;68.2
78571;SHT31;67861;51.966;5.672;2023-02-18T10:55:59;13.3;68.5
78571;SHT31;67861;51.966;5.672;2023-02-18T10:58:33;13.3;68.7
78571;SHT31;67861;51.966;5.672;2023-02-18T11:01:06;13.4;68.2
78571;SHT31;67861;51.966;5.672;2023-02-18T11:03:42;13.4;68.5
78571;SHT31;67861;51.966;5.672;2023-02-18T11:06:29;13.5;68.0
78571;SHT31;67861;51.966;5.672;2023-02-18T11:09:05;13.5;67.6
78571;SHT31;67861;51.966;5.672;2023-02-18T11:11:38;13.5;67.6
78571;SHT31;67861;51.966;5.672;2023-02-18T11:14:15;13.5;67.9
78571;SHT31;67861;51.966;5.672;2023-02-18T11:16:46;13.5;67.7
78571;SHT31;67861;51.966;5.672;2023-02-18T11:19:33;13.5;68.3
78571;SHT31;67861;51.966;5.672;2023-02-18T11:22:17;13.5;68.0
78571;SHT31;67861;51.966;5.672;2023-02-18T11:24:47;13.5;68.4
78571;SHT31;67861;51.966;5.672;2023-02-18T11:27:25;13.5;68.7
78571;SHT31;67861;51.966;5.672;2023-02-18T11:30:00;13.5;68.2
78571;SHT31;67861;51.966;5.672;2023-02-18T11:32:34;13.5;68.3
78571;SHT31;67861;51.966;5.672;2023-02-18T11:35:15;13.5;68.4
78571;SHT31;67861;51.966;5.672;2023-02-18T11:37:45;13.5;68.6
78571;SHT31;67861;51.966;5.672;2023-02-18T11:40:23;13.5;68.7
78571;SHT31;67861;51.966;5.672;2023-02-18T11:43:04;13.5;68.8
78571;SHT31;67861;51.966;5.672;2023-02-18T11:45:35;13.5;68.7
78571;SHT31;67861;51.966;5.672;2023-02-18T11:48:16;13.5;68.9
78571;SHT31;67861;51.966;5.672;2023-02-18T11:50:49;13.6;68.9
78571;SHT31;67861;51.966;5.672;2023-02-18T11:53:33;13.6;69.3
78571;SHT31;67861;51.966;5.672;2023-02-18T11:56:09;13.7;69.0
78571;SHT31;67861;51.966;5.672;2023-02-18T11:58:46;13.7;68.8
78571;SHT31;67861;51.966;5.672;2023-02-18T12:01:34;13.7;69.2
78571;SHT31;67861;51.966;5.672;2023-02-18T12:04:12;13.8;69.1
78571;SHT31;67861;51.966;5.672;2023-02-18T12:06:51;13.8;69.1
78571;SHT31;67861;51.966;5.672;2023-02-18T12:09:28;13.8;68.7
78571;SHT31;67861;51.966;5.672;2023-02-18T12:12:01;13.8;68.9
78571;SHT31;67861;51.966;5.672;2023-02-18T12:14:35;13.8;69.5
78571;SHT31;67861;51.966;5.672;2023-02-18T12:17:19;13.9;69.6
78571;SHT31;67861;51.966;5.672;2023-02-18T12:20:02;13.9;69.1
78571;SHT31;67861;51.966;5.672;2023-02-18T12:22:42;13.9;69.0
78571;SHT31;67861;51.966;5.672;2023-02-18T12:25:24;13.9;68.4
78571;SHT31;67861;51.966;5.672;2023-02-18T12:28:13;13.9;68.5
78571;SHT31;67861;51.966;5.672;2023-02-18T12:31:19;13.9;68.8
78571;SHT31;67861;51.966;5.672;2023-02-18T12:34:10;13.9;68.4
78571;SHT31;67861;51.966;5.672;2023-02-18T12:36:53;13.9;68.4
78571;SHT31;67861;51.966;5.672;2023-02-18T12:39:44;13.9;68.5
78571;SHT31;67861;51.966;5.672;2023-02-18T12:42:30;14.0;67.9
78571;SHT31;67861;51.966;5.672;2023-02-18T12:45:27;14.1;67.7
78571;SHT31;67861;51.966;5.672;2023-02-18T12:48:20;14.1;67.3
78571;SHT31;67861;51.966;5.672;2023-02-18T12:51:06;14.1;67.3
78571;SHT31;67861;51.966;5.672;2023-02-18T12:53:56;14.1;66.8
78571;SHT31;67861;51.966;5.672;2023-02-18T12:57:34;14.1;66.8
78571;SHT31;67861;51.966;5.672;2023-02-18T13:00:47;14.1;66.8
78571;SHT31;67861;51.966;5.672;2023-02-18T13:03:59;14.1;67.2
78571;SHT31;67861;51.966;5.672;2023-02-18T13:07:31;14.0;67.3
78571;SHT31;67861;51.966;5.672;2023-02-18T13:10:24;14.0;67.6
78571;SHT31;67861;51.966;5.672;2023-02-18T13:13:06;14.0;67.3
78571;SHT31;67861;51.966;5.672;2023-02-18T13:15:41;14.0;67.2
78571;SHT31;67861;51.966;5.672;2023-02-18T13:18:19;14.0;67.4
78571;SHT31;67861;51.966;5.672;2023-02-18T13:20:54;14.0;67.7
78571;SHT31;67861;51.966;5.672;2023-02-18T13:23:28;14.0;67.7
78571;SHT31;67861;51.966;5.672;2023-02-18T13:26:02;14.1;68.2
78571;SHT31;67861;51.966;5.672;2023-02-18T13:28:38;14.1;67.7
78571;SHT31;67861;51.966;5.672;2023-02-18T13:31:21;14.1;67.6
78571;SHT31;67861;51.966;5.672;2023-02-18T13:34:03;14.2;67.7
78571;SHT31;67861;51.966;5.672;2023-02-18T13:36:46;14.2;67.9
78571;SHT31;67861;51.966;5.672;2023-02-18T13:39:22;14.2;67.3
78571;SHT31;67861;51.966;5.672;2023-02-18T13:42:20;14.2;67.6
78571;SHT31;67861;51.966;5.672;2023-02-18T13:45:06;14.3;67.4
78571;SHT31;67861;51.966;5.672;2023-02-18T13:47:38;14.3;67.2
78571;SHT31;67861;51.966;5.672;2023-02-18T13:50:27;14.3;67.2
78571;SHT31;67861;51.966;5.672;2023-02-18T13:53:18;14.4;66.6
78571;SHT31;67861;51.966;5.672;2023-02-18T13:55:53;14.4;66.7
78571;SHT31;67861;51.966;5.672;2023-02-18T13:58:29;14.4;66.5
78571;SHT31;67861;51.966;5.672;2023-02-18T14:01:05;14.4;66.3
78571;SHT31;67861;51.966;5.672;2023-02-18T14:03:56;14.4;66.0
78571;SHT31;67861;51.966;5.672;2023-02-18T14:06:29;14.4;66.0
78571;SHT31;67861;51.966;5.672;2023-02-18T14:09:36;14.4;65.9
78571;SHT31;67861;51.966;5.672;2023-02-18T14:12:33;14.4;65.8
78571;SHT31;67861;51.966;5.672;2023-02-18T14:18:20;14.4;66.7
78571;SHT31;67861;51.966;5.672;2023-02-18T14:20:50;14.5;66.3
78571;SHT31;67861;51.966;5.672;2023-02-18T14:23:39;14.6;65.6
78571;SHT31;67861;51.966;5.672;2023-02-18T14:26:20;14.6;65.6
78571;SHT31;67861;51.966;5.672;2023-02-18T14:28:53;14.6;65.3
78571;SHT31;67861;51.966;5.672;2023-02-18T14:31:33;14.6;65.5
78571;SHT31;67861;51.966;5.672;2023-02-18T14:35:02;14.6;65.8
78571;SHT31;67861;51.966;5.672;2023-02-18T14:38:13;14.6;65.3
78571;SHT31;67861;51.966;5.672;2023-02-18T14:41:00;14.6;65.3
78571;SHT31;67861;51.966;5.672;2023-02-18T14:43:54;14.6;65.4
78571;SHT31;67861;51.966;5.672;2023-02-18T14:46:37;14.6;65.3
78571;SHT31;67861;51.966;5.672;2023-02-18T14:49:35;14.5;65.7
78571;SHT31;67861;51.966;5.672;2023-02-18T14:52:11;14.5;65.7
78571;SHT31;67861;51.966;5.672;2023-02-18T14:54:42;14.5;65.8
78571;SHT31;67861;51.966;5.672;2023-02-18T14:57:17;14.5;66.0
78571;SHT31;67861;51.966;5.672;2023-02-18T14:59:58;14.5;66.1
78571;SHT31;67861;51.966;5.672;2023-02-18T15:02:28;14.5;65.8
78571;SHT31;67861;51.966;5.672;2023-02-18T15:05:20;14.6;65.9
78571;SHT31;67861;51.966;5.672;2023-02-18T15:07:59;14.6;65.8
78571;SHT31;67861;51.966;5.672;2023-02-18T15:10:39;14.6;65.8
78571;SHT31;67861;51.966;5.672;2023-02-18T15:13:18;14.6;65.7
78571;SHT31;67861;51.966;5.672;2023-02-18T15:15:52;14.6;65.7
78571;SHT31;67861;51.966;5.672;2023-02-18T15:18:32;14.6;65.6
78571;SHT31;67861;51.966;5.672;2023-02-18T15:21:05;14.6;65.5
78571;SHT31;67861;51.966;5.672;2023-02-18T15:23:38;14.6;65.7
78571;SHT31;67861;51.966;5.672;2023-02-18T15:26:12;14.6;65.5
78571;SHT31;67861;51.966;5.672;2023-02-18T15:28:58;14.6;65.6
78571;SHT31;67861;51.966;5.672;2023-02-18T15:31:33;14.6;65.7
78571;SHT31;67861;51.966;5.672;2023-02-18T15:34:12;14.5;65.6
78571;SHT31;67861;51.966;5.672;2023-02-18T15:36:42;14.5;65.7
78571;SHT31;67861;51.966;5.672;2023-02-18T15:39:17;14.5;65.7
78571;SHT31;67861;51.966;5.672;2023-02-18T15:41:52;14.5;65.7
78571;SHT31;67861;51.966;5.672;2023-02-18T15:44:26;14.6;66.0
78571;SHT31;67861;51.966;5.672;2023-02-18T15:47:01;14.6;65.5
78571;SHT31;67861;51.966;5.672;2023-02-18T15:49:31;14.6;65.5
78571;SHT31;67861;51.966;5.672;2023-02-18T15:52:02;14.6;65.7
78571;SHT31;67861;51.966;5.672;2023-02-18T15:54:32;14.6;65.7
78571;SHT31;67861;51.966;5.672;2023-02-18T15:57:02;14.6;65.9
78571;SHT31;67861;51.966;5.672;2023-02-18T15:59:35;14.7;65.6
78571;SHT31;67861;51.966;5.672;2023-02-18T16:02:17;14.8;65.1
78571;SHT31;67861;51.966;5.672;2023-02-18T16:04:51;14.8;64.9
78571;SHT31;67861;51.966;5.672;2023-02-18T16:07:25;14.8;64.7
78571;SHT31;67861;51.966;5.672;2023-02-18T16:10:17;14.8;64.6
78571;SHT31;67861;51.966;5.672;2023-02-18T16:12:53;14.7;64.7
78571;SHT31;67861;51.966;5.672;2023-02-18T16:15:30;14.7;64.8
78571;SHT31;67861;51.966;5.672;2023-02-18T16:18:01;14.7;64.8
78571;SHT31;67861;51.966;5.672;2023-02-18T16:20:33;14.7;64.9
78571;SHT31;67861;51.966;5.672;2023-02-18T16:23:12;14.6;65.1
78571;SHT31;67861;51.966;5.672;2023-02-18T16:25:45;14.6;65.1
78571;SHT31;67861;51.966;5.672;2023-02-18T16:28:24;14.6;65.2
78571;SHT31;67861;51.966;5.672;2023-02-18T16:30:55;14.5;65.3
78571;SHT31;67861;51.966;5.672;2023-02-18T16:33:27;14.5;65.3
78571;SHT31;67861;51.966;5.672;2023-02-18T16:35:57;14.5;65.6
78571;SHT31;67861;51.966;5.672;2023-02-18T16:38:27;14.5;65.5
78571;SHT31;67861;51.966;5.672;2023-02-18T16:40:58;14.4;65.5
78571;SHT31;67861;51.966;5.672;2023-02-18T16:43:28;14.4;65.6
78571;SHT31;67861;51.966;5.672;2023-02-18T16:46:08;14.4;65.7
78571;SHT31;67861;51.966;5.672;2023-02-18T16:48:40;14.4;65.7
78571;SHT31;67861;51.966;5.672;2023-02-18T16:51:14;14.3;65.8
78571;SHT31;67861;51.966;5.672;2023-02-18T16:53:45;14.3;65.8
78571;SHT31;67861;51.966;5.672;2023-02-18T16:56:18;14.3;65.9
78571;SHT31;67861;51.966;5.672;2023-02-18T16:58:49;14.3;65.8
78571;SHT31;67861;51.966;5.672;2023-02-18T17:01:26;14.2;66.1
78571;SHT31;67861;51.966;5.672;2023-02-18T17:03:57;14.2;66.1
78571;SHT31;67861;51.966;5.672;2023-02-18T17:06:28;14.2;66.4
78571;SHT31;67861;51.966;5.672;2023-02-18T17:08:58;14.2;66.3
78571;SHT31;67861;51.966;5.672;2023-02-18T17:11:31;14.2;66.5